createdAt,value
2022-12-18T00:05:57.743Z,33.50
2022-12-18T00:18:28.758Z,32.20
2022-12-18T00:24:34.243Z,31.03
2022-12-18T00:30:40.399Z,31.90
2022-12-18T00:36:52.257Z,37.70
2022-12-18T00:43:02.590Z,31.07
2022-12-18T00:49:05.202Z,34.83
2022-12-18T00:55:10.668Z,36.73
2022-12-18T01:01:15.258Z,40.47
2022-12-18T01:07:31.303Z,36.10
2022-12-18T01:13:37.439Z,36.53
2022-12-18T01:19:42.615Z,35.83
2022-12-18T01:25:48.127Z,37.93
2022-12-18T01:31:58.999Z,30.43
2022-12-18T01:38:02.102Z,38.77
2022-12-18T01:44:46.864Z,37.03
2022-12-18T01:50:51.181Z,29.57
2022-12-18T01:57:06.692Z,42.93
2022-12-18T02:03:16.151Z,38.13
2022-12-18T02:09:32.737Z,40.43
2022-12-18T02:15:50.622Z,39.00
2022-12-18T02:21:55.739Z,39.30
2022-12-18T02:28:09.497Z,44.57
2022-12-18T02:34:14.795Z,44.73
2022-12-18T02:40:19.233Z,46.13
2022-12-18T02:46:33.959Z,42.73
2022-12-18T02:53:00.308Z,44.53
2022-12-18T02:59:09.791Z,44.73
2022-12-18T03:05:18.271Z,42.73
2022-12-18T03:11:40.822Z,47.40
2022-12-18T03:17:51.320Z,49.43
2022-12-18T03:23:56.781Z,46.77
2022-12-18T03:30:14.274Z,44.53
2022-12-18T03:36:20.743Z,45.40
2022-12-18T03:42:31.251Z,43.70
2022-12-18T03:48:43.747Z,46.77
2022-12-18T03:54:48.219Z,47.03
2022-12-18T04:01:02.748Z,46.43
2022-12-18T04:07:07.246Z,47.00
2022-12-18T04:13:12.681Z,42.60
2022-12-18T04:19:15.109Z,43.57
2022-12-18T04:25:20.572Z,40.90
2022-12-18T04:31:24.103Z,43.10
2022-12-18T04:37:26.526Z,40.90
2022-12-18T04:43:29.028Z,39.57
2022-12-18T04:49:31.480Z,40.63
2022-12-18T04:55:34.946Z,40.57
2022-12-18T05:01:37.519Z,32.40
2022-12-18T05:07:39.872Z,33.37
2022-12-18T05:13:48.327Z,32.67
2022-12-18T05:19:50.186Z,34.83
2022-12-18T05:26:14.625Z,36.60
2022-12-18T05:32:18.209Z,35.33
2022-12-18T05:38:24.249Z,40.50
2022-12-18T05:44:26.742Z,33.87
2022-12-18T05:50:29.192Z,36.50
2022-12-18T05:56:31.686Z,39.90
2022-12-18T06:02:36.655Z,43.90
2022-12-18T06:08:45.873Z,49.50
2022-12-18T06:14:51.235Z,41.23
2022-12-18T06:21:01.634Z,48.87
2022-12-18T06:27:06.243Z,46.73
2022-12-18T06:33:11.565Z,47.87
2022-12-18T06:39:14.038Z,38.17
2022-12-18T06:45:17.525Z,40.50
2022-12-18T06:51:25.996Z,45.37
2022-12-18T06:57:30.413Z,42.90
2022-12-18T07:03:35.962Z,42.60
2022-12-18T07:09:40.423Z,38.53
2022-12-18T07:15:44.628Z,36.27
2022-12-18T07:28:19.988Z,38.33
2022-12-18T07:34:27.688Z,36.43
2022-12-18T07:40:31.400Z,38.43
2022-12-18T07:46:34.466Z,39.33
2022-12-18T07:52:41.847Z,44.30
2022-12-18T07:58:55.387Z,57.43
2022-12-18T08:05:00.334Z,61.27
2022-12-18T08:11:07.392Z,56.53
2022-12-18T08:17:09.835Z,51.87
2022-12-18T08:23:12.292Z,50.73
2022-12-18T08:29:21.353Z,49.13
2022-12-18T08:35:25.478Z,50.30
2022-12-18T08:41:41.016Z,43.93
2022-12-18T08:47:45.159Z,56.70
2022-12-18T08:53:57.475Z,60.33
2022-12-18T09:00:14.198Z,55.47
2022-12-18T09:06:21.824Z,58.53
2022-12-18T09:12:29.251Z,55.60
2022-12-18T09:18:51.331Z,46.30
2022-12-18T09:25:06.372Z,45.10
2022-12-18T09:31:15.798Z,41.33
2022-12-18T09:38:51.885Z,47.43
2022-12-18T09:45:55.244Z,53.50
2022-12-18T09:51:40.748Z,53.67
2022-12-18T09:57:51.260Z,49.40
2022-12-18T10:03:57.348Z,52.67
2022-12-18T10:10:12.274Z,46.80
2022-12-18T10:16:21.787Z,41.67
2022-12-18T10:22:41.293Z,50.53
2022-12-18T10:28:44.890Z,48.93
2022-12-18T10:34:59.831Z,48.93
2022-12-18T10:41:24.888Z,46.53
2022-12-18T10:47:30.598Z,48.73
2022-12-18T10:53:36.418Z,46.00
2022-12-18T10:59:59.269Z,50.67
2022-12-18T11:06:10.785Z,43.53
2022-12-18T11:12:25.297Z,45.13
2022-12-18T11:18:40.113Z,41.67
2022-12-18T11:31:32.495Z,52.33
2022-12-18T11:37:40.303Z,44.43
2022-12-18T11:43:54.870Z,47.10
2022-12-18T11:50:08.870Z,51.27
2022-12-18T11:56:34.050Z,42.23
2022-12-18T12:03:10.625Z,40.40
2022-12-18T12:09:55.244Z,42.43
2022-12-18T12:16:05.784Z,41.67
2022-12-18T12:23:07.233Z,46.77
2022-12-18T12:29:45.015Z,45.47
2022-12-18T12:36:02.611Z,45.83
2022-12-18T12:42:40.439Z,42.77
2022-12-18T12:48:57.702Z,44.07
2022-12-18T12:55:02.151Z,54.97
2022-12-18T13:01:47.099Z,46.17
2022-12-18T13:08:09.840Z,46.50
2022-12-18T13:14:35.805Z,48.77
2022-12-18T13:20:53.621Z,47.03
2022-12-18T13:27:06.301Z,48.83
2022-12-18T13:33:18.378Z,51.43
2022-12-18T13:39:29.980Z,50.40
2022-12-18T13:45:44.710Z,42.83
2022-12-18T13:51:52.869Z,34.93
2022-12-18T13:58:06.391Z,35.43
2022-12-18T14:04:17.246Z,34.30
2022-12-18T14:10:45.583Z,32.53
2022-12-18T14:16:45.001Z,33.77
2022-12-18T14:22:50.376Z,31.53
2022-12-18T14:28:52.868Z,29.13
2022-12-18T14:34:56.324Z,26.67
2022-12-18T14:41:02.803Z,28.73
2022-12-18T14:47:05.278Z,24.87
2022-12-18T14:53:10.720Z,24.83
2022-12-18T14:59:23.964Z,27.60
2022-12-18T15:05:33.703Z,28.23
2022-12-18T15:11:42.197Z,31.90
2022-12-18T15:17:44.633Z,40.70
2022-12-18T15:23:53.119Z,29.83
2022-12-18T15:30:25.717Z,36.93
2022-12-18T15:36:32.560Z,27.17
2022-12-18T15:42:53.684Z,40.43
2022-12-18T15:49:02.534Z,35.07
2022-12-18T15:55:25.688Z,26.87
2022-12-18T16:01:39.577Z,30.60
2022-12-18T16:07:59.591Z,26.07
2022-12-18T16:14:02.237Z,34.17
2022-12-18T16:20:04.728Z,26.27
2022-12-18T16:26:16.283Z,32.07
2022-12-18T16:32:21.652Z,32.63
2022-12-18T16:38:26.000Z,27.20
2022-12-18T16:44:32.221Z,34.30
2022-12-18T16:50:39.013Z,35.43
2022-12-18T16:56:43.590Z,35.10
2022-12-18T17:02:52.136Z,34.70
2022-12-18T17:09:02.560Z,39.80
2022-12-18T17:15:07.418Z,38.30
2022-12-18T17:21:11.554Z,49.40
2022-12-18T17:27:18.999Z,45.37
2022-12-18T17:33:30.569Z,42.70
2022-12-18T17:39:59.558Z,41.33
2022-12-18T17:46:06.588Z,44.13
2022-12-18T17:52:15.997Z,50.80
2022-12-18T17:58:21.514Z,40.77
2022-12-18T18:04:23.994Z,47.67
2022-12-18T18:10:26.429Z,45.00
2022-12-18T18:16:51.040Z,38.40
2022-12-18T18:23:07.837Z,46.13
2022-12-18T18:29:26.953Z,46.23
2022-12-18T18:42:03.338Z,41.93
2022-12-18T18:48:10.075Z,43.80
2022-12-18T18:54:20.890Z,41.23
2022-12-18T19:00:27.763Z,50.60
2022-12-18T19:06:42.099Z,46.17
2022-12-18T19:13:05.592Z,44.57
2022-12-18T19:19:18.091Z,37.93
2022-12-18T19:25:28.158Z,34.43
2022-12-18T19:31:50.244Z,32.03
2022-12-18T19:37:57.681Z,34.63
2022-12-18T19:44:20.305Z,34.17
2022-12-18T19:50:22.658Z,40.10
2022-12-18T19:56:27.144Z,39.40
2022-12-18T20:03:02.440Z,33.77
2022-12-18T20:09:15.710Z,27.97
2022-12-18T20:15:46.653Z,24.17
2022-12-18T20:21:56.299Z,34.83
2022-12-18T20:28:10.597Z,29.03
2022-12-18T20:34:13.361Z,26.60
2022-12-18T20:40:33.273Z,33.53
2022-12-18T20:47:59.786Z,48.63
2022-12-18T20:53:30.175Z,30.23
2022-12-18T20:59:37.081Z,36.67
2022-12-18T21:05:41.964Z,32.15
2022-12-18T21:12:17.584Z,28.43
2022-12-18T21:18:20.121Z,33.33
2022-12-18T21:24:37.850Z,28.63
2022-12-18T21:30:59.081Z,29.60
2022-12-18T21:37:08.404Z,30.20
2022-12-18T21:43:29.124Z,32.80
2022-12-18T21:49:40.279Z,25.23
2022-12-18T21:55:48.119Z,30.67
2022-12-18T22:02:01.730Z,32.03
2022-12-18T22:08:16.366Z,35.10
2022-12-18T22:14:23.776Z,33.67
2022-12-18T22:20:34.065Z,47.07
2022-12-18T22:26:45.245Z,37.13
2022-12-18T22:32:59.009Z,33.03
2022-12-18T22:39:26.747Z,28.23
2022-12-18T22:46:03.082Z,34.87
2022-12-18T22:52:10.739Z,31.10
2022-12-18T22:58:23.628Z,25.97
2022-12-18T23:04:49.064Z,36.50
2022-12-18T23:11:04.255Z,28.80
2022-12-18T23:17:14.448Z,36.43
2022-12-18T23:30:12.207Z,29.17
2022-12-18T23:36:24.480Z,31.00
2022-12-18T23:42:58.002Z,30.67
2022-12-18T23:49:06.503Z,33.63
2022-12-18T23:55:15.942Z,36.53
